Stanley, ID (83278)

1:59 PM MDT on September 01, 2015 (GMT -0600)
APRSWXNET | | Change Station
CLOSE
Current Station
Personal Weather Station
Location: Stanley, ID
Elevation: 6646 ft
Nearby Weather Stations

Elev 6646 ft 44.20 °N, 114.90 °W | Updated 31 minutes ago

Clear
Clear
73 °F
Feels Like 75 °F
N
6
Wind Variable Wind from South
Gusts 13.0 mph

Today
High -- | Low -- °F
--% Chance of Precip.
Yesterday
High -- | Low -- °F
Precip. -- in
7:02 AM 8:15 PM
Waning Gibbous, 87% visible
Pressure 29.78 in
Visibility -9999.0 miles
Clouds
Heat Index 75 °F
Dew Point 28 °F
Humidity 19%
Rainfall in
Snow Depth Not available.
UV Not available.
Pollen 8.10 out of 12
Air Quality Not available.
Flu Activity Not available.
METAR KSNT 011951Z AUTO VRB05KT 24/M02 A3005 RMK AO1 SLP083 T02441022
Pressure 29.78 in
Visibility -9999.0 miles
Clouds
Heat Index 75 °F
Dew Point 28 °F
Humidity 19%
Rainfall in
Snow Depth Not available.
UV Not available.
Pollen 8.10 out of 12
Air Quality Not available.
Flu Activity Not available.
METAR KSNT 011951Z AUTO VRB05KT 24/M02 A3005 RMK AO1 SLP083 T02441022

10-Day Weather Forecast

×

Almanac

Astronomy

Sep. 01, 2015 Rise Set
Actual Time
Civil Twilight
Nautical Twilight
Astronomical Twilight
Moon
Length of Visible Light
Length of Day
Tomorrow will be .
, % of the Moon is Illuminated

Today's Extremes

State Highs State Lows

Community

WunderPhotos

Upload Photos

1,851,597 photos uploaded!

WunderBlogs® & News

Nearby

Air Quality

  Air Quality AQ Index Pollutant
Not available.

Snow Depth

Station Depth Elevation

Earthquake Activity

City Distance Mag. Time & Date
Minimum magnitude displayed is 2.5.

Coastal Water Temperatures

Place Temperature

Stations

Nearby Weather Stations

Station Location Temp. Windchill Dew Point Humidity Wind Precip. Elev Updated Type